createdAt,value
2023-01-11T00:00:56.922Z,1011.01
2023-01-11T00:01:56.882Z,1011.07
2023-01-11T00:02:56.845Z,1011.11
2023-01-11T00:03:56.810Z,1011.13
2023-01-11T00:04:56.878Z,1011.10
2023-01-11T00:05:56.789Z,1011.07
2023-01-11T00:06:56.877Z,1011.04
2023-01-11T00:07:56.800Z,1011.21
2023-01-11T00:08:56.763Z,1011.02
2023-01-11T00:09:56.741Z,1011.07
2023-01-11T00:10:56.746Z,1011.11
2023-01-11T00:11:56.721Z,1011.05
2023-01-11T00:12:56.743Z,1010.99
2023-01-11T00:13:56.714Z,1011.02
2023-01-11T00:14:56.700Z,1011.04
2023-01-11T00:15:56.748Z,1011.03
2023-01-11T00:16:56.670Z,1011.00
2023-01-11T00:17:56.655Z,1011.00
2023-01-11T00:18:56.666Z,1010.97
2023-01-11T00:19:56.632Z,1011.07
2023-01-11T00:20:56.626Z,1011.06
2023-01-11T00:21:56.621Z,1011.08
2023-01-11T00:22:56.645Z,1011.00
2023-01-11T00:23:56.591Z,1010.89
2023-01-11T00:24:56.608Z,1010.94
2023-01-11T00:25:56.569Z,1010.93
2023-01-11T00:26:56.560Z,1010.91
2023-01-11T00:27:56.555Z,1010.93
2023-01-11T00:28:56.565Z,1010.95
2023-01-11T00:29:56.550Z,1010.89
2023-01-11T00:30:56.586Z,1010.82
2023-01-11T00:31:56.537Z,1010.89
2023-01-11T00:32:56.496Z,1010.88
2023-01-11T00:33:56.490Z,1010.83
2023-01-11T00:34:56.477Z,1010.77
2023-01-11T00:35:56.459Z,1010.81
2023-01-11T00:36:56.481Z,1010.75
2023-01-11T00:37:56.461Z,1010.78
2023-01-11T00:38:56.429Z,1010.76
2023-01-11T00:39:56.447Z,1010.71
2023-01-11T00:40:56.405Z,1010.80
2023-01-11T00:41:56.417Z,1010.76
2023-01-11T00:42:56.389Z,1010.72
2023-01-11T00:43:56.368Z,1010.73
2023-01-11T00:44:56.374Z,1010.74
2023-01-11T00:45:56.414Z,1010.72
2023-01-11T00:46:56.362Z,1010.67
2023-01-11T00:47:56.351Z,1010.71
2023-01-11T00:48:56.349Z,1010.65
2023-01-11T00:49:56.311Z,1010.59
2023-01-11T00:50:56.295Z,1010.65
2023-01-11T00:51:56.279Z,1010.56
2023-01-11T00:52:56.304Z,1010.62
2023-01-11T00:53:56.264Z,1010.73
2023-01-11T00:54:56.257Z,1010.63
2023-01-11T00:55:56.240Z,1010.56
2023-01-11T00:56:56.232Z,1010.63
2023-01-11T00:57:56.237Z,1010.59
2023-01-11T00:58:56.211Z,1010.56
2023-01-11T00:59:56.205Z,1010.54
2023-01-11T01:00:56.214Z,1010.60
2023-01-11T01:01:56.183Z,1010.56
2023-01-11T01:02:56.284Z,1010.54
2023-01-11T01:03:56.176Z,1010.55
2023-01-11T01:04:56.145Z,1010.54
2023-01-11T01:05:56.155Z,1010.59
2023-01-11T01:06:56.174Z,1010.51
2023-01-11T01:07:56.113Z,1010.47
2023-01-11T01:08:56.108Z,1010.45
2023-01-11T01:09:56.093Z,1010.40
2023-01-11T01:10:56.109Z,1010.36
2023-01-11T01:11:56.071Z,1010.38
2023-01-11T01:12:56.069Z,1010.41
2023-01-11T01:13:56.045Z,1010.30
2023-01-11T01:14:56.042Z,1010.36
2023-01-11T01:15:56.077Z,1010.31
2023-01-11T01:16:56.024Z,1010.32
2023-01-11T01:17:56.023Z,1010.28
2023-01-11T01:18:55.996Z,1010.31
2023-01-11T01:19:56.003Z,1010.27
2023-01-11T01:20:56.016Z,1010.21
2023-01-11T01:21:55.974Z,1010.24
2023-01-11T01:22:55.960Z,1010.30
2023-01-11T01:23:55.946Z,1010.26
2023-01-11T01:24:55.953Z,1010.29
2023-01-11T01:25:55.921Z,1010.31
2023-01-11T01:26:55.977Z,1010.33
2023-01-11T01:27:55.906Z,1010.31
2023-01-11T01:28:55.899Z,1010.32
2023-01-11T01:29:55.891Z,1010.22
2023-01-11T01:30:55.912Z,1010.21
2023-01-11T01:31:55.878Z,1010.23
2023-01-11T01:32:55.848Z,1010.22
2023-01-11T01:33:55.833Z,1010.15
2023-01-11T01:34:55.856Z,1010.18
2023-01-11T01:35:55.833Z,1010.18
2023-01-11T01:36:55.819Z,1010.22
2023-01-11T01:37:55.794Z,1010.28
2023-01-11T01:38:55.781Z,1010.27
2023-01-11T01:39:55.794Z,1010.19
2023-01-11T01:40:55.761Z,1010.18
2023-01-11T01:41:55.742Z,1010.18
2023-01-11T01:42:55.761Z,1010.21
2023-01-11T01:43:55.722Z,1010.13
2023-01-11T01:44:55.744Z,1010.15
2023-01-11T01:45:55.744Z,1010.12
2023-01-11T01:46:55.724Z,1010.12
2023-01-11T01:47:55.678Z,1010.08
2023-01-11T01:48:55.673Z,1010.06
2023-01-11T01:49:55.698Z,1010.06
2023-01-11T01:50:55.652Z,1010.07
2023-01-11T01:51:55.676Z,1010.04
2023-01-11T01:52:55.633Z,1009.97
2023-01-11T01:53:55.626Z,1009.98
2023-01-11T01:54:55.613Z,1009.97
2023-01-11T01:55:55.627Z,1009.96
2023-01-11T01:56:55.581Z,1009.99
2023-01-11T01:57:55.569Z,1009.94
2023-01-11T01:58:55.559Z,1009.91
2023-01-11T01:59:55.555Z,1009.90
2023-01-11T02:00:55.557Z,1009.90
2023-01-11T02:01:55.627Z,1009.88
2023-01-11T02:02:55.540Z,1009.82
2023-01-11T02:03:55.500Z,1009.80
2023-01-11T02:04:55.493Z,1009.81
2023-01-11T02:05:55.503Z,1009.74
2023-01-11T02:06:55.600Z,1009.72
2023-01-11T02:07:55.487Z,1009.69
2023-01-11T02:08:55.449Z,1009.67
2023-01-11T02:09:55.439Z,1009.71
2023-01-11T02:10:55.459Z,1009.66
2023-01-11T02:11:55.415Z,1009.63
2023-01-11T02:12:55.407Z,1009.66
2023-01-11T02:13:55.395Z,1009.58
2023-01-11T02:14:55.381Z,1009.58
2023-01-11T02:15:55.427Z,1009.55
2023-01-11T02:16:55.360Z,1009.46
2023-01-11T02:17:55.391Z,1009.49
2023-01-11T02:18:55.337Z,1009.44
2023-01-11T02:19:55.326Z,1009.45
2023-01-11T02:20:55.318Z,1009.39
2023-01-11T02:21:55.323Z,1009.45
2023-01-11T02:22:55.304Z,1009.46
2023-01-11T02:23:55.304Z,1009.37
2023-01-11T02:24:55.283Z,1009.35
2023-01-11T02:25:55.261Z,1009.31
2023-01-11T02:26:55.304Z,1009.38
2023-01-11T02:27:55.236Z,1009.31
2023-01-11T02:28:55.231Z,1009.28
2023-01-11T02:29:55.252Z,1009.29
2023-01-11T02:30:55.295Z,1009.24
2023-01-11T02:31:55.205Z,1009.26
2023-01-11T02:32:55.191Z,1009.22
2023-01-11T02:33:55.175Z,1009.11
2023-01-11T02:34:55.169Z,1009.15
2023-01-11T02:35:55.181Z,1009.12
2023-01-11T02:36:55.164Z,1009.11
2023-01-11T02:37:55.152Z,1009.08
2023-01-11T02:38:55.119Z,1009.06
2023-01-11T02:39:55.165Z,1009.04
2023-01-11T02:40:55.099Z,1009.02
2023-01-11T02:41:55.089Z,1009.02
2023-01-11T02:42:55.081Z,1009.03
2023-01-11T02:43:55.062Z,1008.97
2023-01-11T02:44:55.078Z,1008.96
2023-01-11T02:45:55.045Z,1008.95
2023-01-11T02:46:55.061Z,1008.94
2023-01-11T02:47:55.017Z,1008.96
2023-01-11T02:48:55.015Z,1008.93
2023-01-11T02:49:54.997Z,1008.93
2023-01-11T02:50:54.989Z,1008.92
2023-01-11T02:51:54.985Z,1008.91
2023-01-11T02:52:54.988Z,1008.85
2023-01-11T02:53:54.953Z,1008.82
2023-01-11T02:54:54.942Z,1008.83
2023-01-11T02:55:54.949Z,1008.84
2023-01-11T02:56:54.926Z,1008.84
2023-01-11T02:57:54.952Z,1008.79
2023-01-11T02:58:54.902Z,1008.81
2023-01-11T02:59:54.892Z,1008.85
2023-01-11T03:00:54.879Z,1008.90
2023-01-11T03:01:54.939Z,1008.85
2023-01-11T03:02:54.961Z,1008.85
2023-01-11T03:03:54.885Z,1008.82
2023-01-11T03:04:54.869Z,1008.83
2023-01-11T03:05:54.850Z,1008.80
2023-01-11T03:06:54.888Z,1008.86
2023-01-11T03:07:54.800Z,1008.77
2023-01-11T03:08:54.794Z,1008.86
2023-01-11T03:09:54.789Z,1008.82
2023-01-11T03:10:54.802Z,1008.73
2023-01-11T03:11:54.780Z,1008.64
2023-01-11T03:12:54.784Z,1008.70
2023-01-11T03:13:54.745Z,1008.65
2023-01-11T03:14:54.729Z,1008.65
2023-01-11T03:15:54.789Z,1008.67
2023-01-11T03:16:54.712Z,1008.69
2023-01-11T03:17:54.689Z,1008.58
2023-01-11T03:18:54.697Z,1008.55
2023-01-11T03:19:54.690Z,1008.56
2023-01-11T03:20:54.663Z,1008.56
2023-01-11T03:21:54.673Z,1008.60
2023-01-11T03:22:54.640Z,1008.56
2023-01-11T03:23:54.630Z,1008.49
2023-01-11T03:24:54.629Z,1008.53
2023-01-11T03:25:54.651Z,1008.52
2023-01-11T03:26:54.628Z,1008.54
2023-01-11T03:27:54.614Z,1008.57
2023-01-11T03:28:54.579Z,1008.46
2023-01-11T03:29:54.620Z,1008.48
2023-01-11T03:30:54.568Z,1008.40
2023-01-11T03:31:54.542Z,1008.45
2023-01-11T03:32:54.532Z,1008.39
2023-01-11T03:33:54.524Z,1008.48
2023-01-11T03:34:54.539Z,1008.39
2023-01-11T03:35:54.505Z,1008.43
2023-01-11T03:36:54.484Z,1008.38
2023-01-11T03:37:54.489Z,1008.33
2023-01-11T03:38:54.467Z,1008.34
2023-01-11T03:39:54.470Z,1008.33
2023-01-11T03:40:54.461Z,1008.33
2023-01-11T03:41:54.438Z,1008.30
2023-01-11T03:42:54.420Z,1008.29
2023-01-11T03:43:54.436Z,1008.28
2023-01-11T03:44:54.419Z,1008.23
2023-01-11T03:45:54.420Z,1008.20
2023-01-11T03:46:54.445Z,1008.27
2023-01-11T03:47:54.385Z,1008.28
2023-01-11T03:48:54.376Z,1008.28
2023-01-11T03:49:54.362Z,1008.22
2023-01-11T03:50:54.357Z,1008.28
2023-01-11T03:51:54.327Z,1008.22
2023-01-11T03:52:54.315Z,1008.14
2023-01-11T03:53:54.308Z,1008.18
2023-01-11T03:54:54.291Z,1008.21
2023-01-11T03:55:54.317Z,1008.21
2023-01-11T03:56:54.279Z,1008.20
2023-01-11T03:57:54.267Z,1008.12
2023-01-11T03:58:54.273Z,1008.13
2023-01-11T03:59:54.262Z,1008.11
2023-01-11T04:00:54.358Z,1008.15
2023-01-11T04:01:54.224Z,1008.14
2023-01-11T04:02:54.230Z,1008.11
2023-01-11T04:03:54.269Z,1008.25
2023-01-11T04:04:54.221Z,1008.16
2023-01-11T04:05:54.182Z,1008.17
2023-01-11T04:06:54.269Z,1008.18
2023-01-11T04:07:54.157Z,1008.13
2023-01-11T04:08:54.147Z,1008.09
2023-01-11T04:09:54.134Z,1008.05
2023-01-11T04:10:54.120Z,1008.08
2023-01-11T04:11:54.134Z,1008.07
2023-01-11T04:12:54.109Z,1008.05
2023-01-11T04:13:54.091Z,1008.14
2023-01-11T04:14:54.100Z,1008.06
2023-01-11T04:15:54.103Z,1008.06
2023-01-11T04:16:54.055Z,1008.02
2023-01-11T04:17:54.046Z,1008.04
2023-01-11T04:18:54.035Z,1008.04
2023-01-11T04:19:54.050Z,1008.12
2023-01-11T04:20:54.021Z,1008.07
2023-01-11T04:21:54.029Z,1008.03
2023-01-11T04:22:53.993Z,1008.05
2023-01-11T04:23:53.987Z,1008.06
2023-01-11T04:24:53.979Z,1008.07
2023-01-11T04:25:53.963Z,1008.06
2023-01-11T04:26:53.969Z,1008.02
2023-01-11T04:27:53.947Z,1007.98
2023-01-11T04:28:54.486Z,1007.92
2023-01-11T04:29:53.941Z,1007.96
2023-01-11T04:30:53.912Z,1008.00
2023-01-11T04:31:54.004Z,1008.00
2023-01-11T04:32:53.887Z,1008.03
2023-01-11T04:33:53.877Z,1007.99
2023-01-11T04:34:53.889Z,1007.97
2023-01-11T04:35:53.889Z,1007.86
2023-01-11T04:36:53.849Z,1007.90
2023-01-11T04:37:53.838Z,1007.79
2023-01-11T04:38:53.821Z,1007.78
2023-01-11T04:39:53.825Z,1007.78
2023-01-11T04:40:53.797Z,1007.77
2023-01-11T04:41:53.814Z,1007.74
2023-01-11T04:42:53.780Z,1007.75
2023-01-11T04:43:53.766Z,1007.72
2023-01-11T04:44:53.780Z,1007.68
2023-01-11T04:45:53.765Z,1007.65
2023-01-11T04:46:53.756Z,1007.73
2023-01-11T04:47:53.757Z,1007.66
2023-01-11T04:48:53.724Z,1007.72
2023-01-11T04:49:53.723Z,1007.69
2023-01-11T04:50:53.693Z,1007.66
2023-01-11T04:51:53.678Z,1007.65
2023-01-11T04:52:53.672Z,1007.71
2023-01-11T04:53:53.657Z,1007.60
2023-01-11T04:54:53.680Z,1007.52
2023-01-11T04:55:53.659Z,1007.53
2023-01-11T04:56:53.627Z,1007.56
2023-01-11T04:57:53.619Z,1007.51
2023-01-11T04:58:53.604Z,1007.55
2023-01-11T04:59:53.621Z,1007.60
2023-01-11T05:00:53.671Z,1007.53
2023-01-11T05:01:53.583Z,1007.56
2023-01-11T05:02:53.563Z,1007.60
2023-01-11T05:03:53.601Z,1007.55
2023-01-11T05:04:53.560Z,1007.58
2023-01-11T05:05:53.557Z,1007.55
2023-01-11T05:06:53.628Z,1007.53
2023-01-11T05:07:53.510Z,1007.67
2023-01-11T05:08:53.499Z,1007.55
2023-01-11T05:09:53.493Z,1007.53
2023-01-11T05:10:53.495Z,1007.55
2023-01-11T05:11:53.488Z,1007.48
2023-01-11T05:12:53.450Z,1007.46
2023-01-11T05:13:53.447Z,1007.50
2023-01-11T05:14:53.432Z,1007.48
2023-01-11T05:15:53.448Z,1007.46
2023-01-11T05:16:53.416Z,1007.49
2023-01-11T05:17:53.399Z,1007.49
2023-01-11T05:18:53.390Z,1007.48
2023-01-11T05:19:53.423Z,1007.42
2023-01-11T05:20:53.412Z,1007.42
2023-01-11T05:21:53.363Z,1007.41
2023-01-11T05:22:53.344Z,1007.40
2023-01-11T05:23:53.336Z,1007.40
2023-01-11T05:24:53.362Z,1007.36
2023-01-11T05:25:53.339Z,1007.30
2023-01-11T05:26:53.313Z,1007.23
2023-01-11T05:27:53.297Z,1007.19
2023-01-11T05:28:53.290Z,1007.23
2023-01-11T05:29:53.273Z,1007.17
2023-01-11T05:30:53.279Z,1007.18
2023-01-11T05:31:53.322Z,1007.15
2023-01-11T05:32:53.242Z,1007.25
2023-01-11T05:33:53.230Z,1007.19
2023-01-11T05:34:53.262Z,1007.20
2023-01-11T05:35:54.529Z,1007.28
2023-01-11T05:36:53.197Z,1007.24
2023-01-11T05:37:53.184Z,1007.26
2023-01-11T05:38:53.172Z,1007.24
2023-01-11T05:39:53.183Z,1007.21
2023-01-11T05:40:53.183Z,1007.21
2023-01-11T05:41:53.157Z,1007.17
2023-01-11T05:42:53.130Z,1007.17
2023-01-11T05:43:53.125Z,1007.16
2023-01-11T05:44:53.109Z,1007.16
2023-01-11T05:45:53.142Z,1007.15
2023-01-11T05:46:53.112Z,1007.12
2023-01-11T05:47:53.084Z,1007.12
2023-01-11T05:48:53.071Z,1007.16
2023-01-11T05:49:53.053Z,1007.10
2023-01-11T05:50:53.050Z,1007.07
2023-01-11T05:51:53.078Z,1007.04
2023-01-11T05:52:53.020Z,1007.04
2023-01-11T05:53:53.041Z,1007.05
2023-01-11T05:54:53.005Z,1007.03
2023-01-11T05:55:52.993Z,1007.03
2023-01-11T05:56:53.010Z,1007.08
2023-01-11T05:57:52.987Z,1007.00
2023-01-11T05:58:52.955Z,1006.99
2023-01-11T05:59:52.952Z,1007.00
2023-01-11T06:00:52.956Z,1007.04
2023-01-11T06:01:52.940Z,1007.09
2023-01-11T06:02:53.010Z,1007.10
2023-01-11T06:03:52.918Z,1007.09
2023-01-11T06:04:54.965Z,1007.10
2023-01-11T06:05:52.910Z,1007.12
2023-01-11T06:06:52.946Z,1007.01
2023-01-11T06:07:52.891Z,1007.06
2023-01-11T06:08:52.853Z,1007.00
2023-01-11T06:09:52.841Z,1007.02
2023-01-11T06:10:52.855Z,1007.01
2023-01-11T06:11:52.824Z,1006.92
2023-01-11T06:12:52.830Z,1006.91
2023-01-11T06:13:52.796Z,1006.95
2023-01-11T06:14:52.780Z,1006.90
2023-01-11T06:15:52.777Z,1006.88
2023-01-11T06:16:52.806Z,1006.88
2023-01-11T06:17:52.779Z,1006.86
2023-01-11T06:18:52.765Z,1006.86
2023-01-11T06:19:52.735Z,1006.87
2023-01-11T06:20:52.717Z,1006.80
2023-01-11T06:21:52.716Z,1006.84
2023-01-11T06:22:52.723Z,1006.78
2023-01-11T06:23:52.753Z,1006.75
2023-01-11T06:24:52.683Z,1006.82
2023-01-11T06:25:52.675Z,1006.76
2023-01-11T06:26:52.657Z,1006.80
2023-01-11T06:27:52.669Z,1006.78
2023-01-11T06:28:52.662Z,1006.80
2023-01-11T06:29:52.624Z,1006.76
2023-01-11T06:30:52.687Z,1006.78
2023-01-11T06:31:52.632Z,1006.79
2023-01-11T06:32:52.593Z,1006.79
2023-01-11T06:33:52.585Z,1006.78
2023-01-11T06:34:52.586Z,1006.74
2023-01-11T06:35:52.565Z,1006.80
2023-01-11T06:36:52.566Z,1006.75
2023-01-11T06:37:52.544Z,1006.76
2023-01-11T06:38:52.577Z,1006.70
2023-01-11T06:39:52.559Z,1006.67
2023-01-11T06:40:52.505Z,1006.69
2023-01-11T06:41:52.496Z,1006.60
2023-01-11T06:42:52.481Z,1006.65
2023-01-11T06:43:52.502Z,1006.62
2023-01-11T06:44:52.485Z,1006.68
2023-01-11T06:45:52.513Z,1006.69
2023-01-11T06:46:52.445Z,1006.79
2023-01-11T06:47:52.432Z,1006.78
2023-01-11T06:48:52.441Z,1006.76
2023-01-11T06:49:52.434Z,1006.82
2023-01-11T06:50:52.400Z,1006.81
2023-01-11T06:51:52.398Z,1006.81
2023-01-11T06:52:52.379Z,1006.76
2023-01-11T06:53:52.396Z,1006.77
2023-01-11T06:54:52.393Z,1006.74
2023-01-11T06:55:52.372Z,1006.75
2023-01-11T06:56:52.335Z,1006.72
2023-01-11T06:57:52.342Z,1006.76
2023-01-11T06:58:52.341Z,1006.76
2023-01-11T06:59:52.336Z,1006.80
2023-01-11T07:00:52.422Z,1006.80
2023-01-11T07:01:52.289Z,1006.86
2023-01-11T07:02:52.283Z,1006.83
2023-01-11T07:03:52.260Z,1006.86
2023-01-11T07:04:52.327Z,1006.90
2023-01-11T07:05:52.264Z,1006.88
2023-01-11T07:06:52.222Z,1006.88
2023-01-11T07:07:52.218Z,1006.88
2023-01-11T07:08:52.201Z,1006.87
2023-01-11T07:09:52.200Z,1006.83
2023-01-11T07:10:52.222Z,1006.96
2023-01-11T07:11:52.220Z,1006.89
2023-01-11T07:12:52.164Z,1006.99
2023-01-11T07:13:52.157Z,1006.88
2023-01-11T07:14:52.140Z,1006.89
2023-01-11T07:15:52.193Z,1006.91
2023-01-11T07:16:52.134Z,1006.96
2023-01-11T07:17:52.109Z,1006.94
2023-01-11T07:18:52.130Z,1007.04
2023-01-11T07:19:52.085Z,1006.96
2023-01-11T07:20:52.098Z,1006.99
2023-01-11T07:21:52.097Z,1006.99
2023-01-11T07:22:52.064Z,1006.98
2023-01-11T07:23:52.052Z,1007.01
2023-01-11T07:24:52.039Z,1007.01
2023-01-11T07:25:52.112Z,1007.03
2023-01-11T07:26:52.032Z,1007.03
2023-01-11T07:27:52.086Z,1007.01
2023-01-11T07:28:52.009Z,1007.08
2023-01-11T07:29:51.991Z,1007.09
2023-01-11T07:30:58.498Z,1007.00
2023-01-11T07:31:52.958Z,1007.07
2023-01-11T07:32:51.973Z,1007.03
2023-01-11T07:33:51.946Z,1007.04
2023-01-11T07:34:51.925Z,1006.97
2023-01-11T07:35:51.916Z,1007.00
2023-01-11T07:36:51.916Z,1007.05
2023-01-11T07:37:51.927Z,1007.03
2023-01-11T07:38:51.888Z,1007.03
2023-01-11T07:39:51.907Z,1006.95
2023-01-11T07:40:51.864Z,1006.95
2023-01-11T07:41:51.849Z,1006.92
2023-01-11T07:42:51.879Z,1006.91
2023-01-11T07:43:51.879Z,1006.97
2023-01-11T07:44:51.818Z,1006.98
2023-01-11T07:45:51.922Z,1007.01
2023-01-11T07:46:52.063Z,1006.96
2023-01-11T07:47:51.837Z,1006.92
2023-01-11T07:48:51.780Z,1006.96
2023-01-11T07:49:51.786Z,1006.97
2023-01-11T07:50:51.749Z,1006.99
2023-01-11T07:51:51.739Z,1006.94
2023-01-11T07:52:51.756Z,1006.93
2023-01-11T07:53:51.722Z,1006.96
2023-01-11T07:54:51.718Z,1006.91
2023-01-11T07:55:51.697Z,1006.92
2023-01-11T07:56:51.695Z,1006.94
2023-01-11T07:57:51.700Z,1006.96
2023-01-11T07:58:51.671Z,1006.89
2023-01-11T07:59:51.680Z,1006.99
2023-01-11T08:00:51.654Z,1006.97
2023-01-11T08:01:51.631Z,1006.94
2023-01-11T08:02:51.762Z,1006.87
2023-01-11T08:03:51.703Z,1006.92
2023-01-11T08:04:51.605Z,1006.94
2023-01-11T08:05:51.648Z,1006.88
2023-01-11T08:06:51.587Z,1006.89
2023-01-11T08:07:51.573Z,1006.83
2023-01-11T08:08:51.587Z,1006.83
2023-01-11T08:09:51.554Z,1006.88
2023-01-11T08:10:51.558Z,1006.88
2023-01-11T08:11:51.525Z,1006.83
2023-01-11T08:12:51.735Z,1006.87
2023-01-11T08:13:51.505Z,1006.82
2023-01-11T08:14:51.497Z,1006.83
2023-01-11T08:15:51.597Z,1006.84
2023-01-11T08:16:51.505Z,1006.81
2023-01-11T08:17:51.476Z,1006.84
2023-01-11T08:18:51.461Z,1006.78
2023-01-11T08:19:51.440Z,1006.85
2023-01-11T08:20:51.433Z,1006.80
2023-01-11T08:21:51.444Z,1006.80
2023-01-11T08:22:51.412Z,1006.79
2023-01-11T08:23:51.403Z,1006.83
2023-01-11T08:24:51.409Z,1006.81
2023-01-11T08:25:51.380Z,1006.74
2023-01-11T08:26:51.423Z,1006.81
2023-01-11T08:27:51.355Z,1006.79
2023-01-11T08:28:51.351Z,1006.78
2023-01-11T08:29:51.341Z,1006.77
2023-01-11T08:30:51.359Z,1006.84
2023-01-11T08:31:51.332Z,1006.70
2023-01-11T08:32:51.331Z,1006.71
2023-01-11T08:33:51.292Z,1006.73
2023-01-11T08:34:51.289Z,1006.75
2023-01-11T08:35:51.268Z,1006.75
2023-01-11T08:36:51.265Z,1006.78
2023-01-11T08:37:51.282Z,1006.83
2023-01-11T08:38:51.238Z,1006.76
2023-01-11T08:39:51.245Z,1006.76
2023-01-11T08:40:51.219Z,1006.75
2023-01-11T08:41:51.221Z,1006.76
2023-01-11T08:42:51.214Z,1006.71
2023-01-11T08:43:51.190Z,1006.80
2023-01-11T08:44:51.217Z,1006.69
2023-01-11T08:45:51.187Z,1006.71
2023-01-11T08:46:52.542Z,1006.71
2023-01-11T08:47:51.181Z,1006.71
2023-01-11T08:48:51.130Z,1006.67
2023-01-11T08:49:51.135Z,1006.67
2023-01-11T08:50:51.125Z,1006.70
2023-01-11T08:51:51.100Z,1006.70
2023-01-11T08:52:51.662Z,1006.71
2023-01-11T08:53:51.078Z,1006.67
2023-01-11T08:54:51.062Z,1006.66
2023-01-11T08:55:51.067Z,1006.79
2023-01-11T08:56:51.053Z,1006.67
2023-01-11T08:57:51.029Z,1006.66
2023-01-11T08:58:51.042Z,1006.69
2023-01-11T08:59:51.017Z,1006.69
2023-01-11T09:00:51.023Z,1006.67
2023-01-11T09:01:51.011Z,1006.73
2023-01-11T09:02:50.994Z,1006.70
2023-01-11T09:03:51.013Z,1006.69
2023-01-11T09:04:50.963Z,1006.71
2023-01-11T09:05:50.967Z,1006.66
2023-01-11T09:06:50.936Z,1006.75
2023-01-11T09:07:50.948Z,1006.69
2023-01-11T09:08:50.948Z,1006.71
2023-01-11T09:09:50.903Z,1006.67
2023-01-11T09:10:50.918Z,1006.71
2023-01-11T09:11:50.877Z,1006.70
2023-01-11T09:12:50.872Z,1006.82
2023-01-11T09:13:50.860Z,1006.72
2023-01-11T09:14:50.903Z,1006.74
2023-01-11T09:15:50.851Z,1006.77
2023-01-11T09:16:50.833Z,1006.66
2023-01-11T09:17:50.825Z,1006.70
2023-01-11T09:18:50.832Z,1006.59
2023-01-11T09:19:50.881Z,1006.63
2023-01-11T09:20:50.792Z,1006.68
2023-01-11T09:21:50.767Z,1006.68
2023-01-11T09:22:52.814Z,1006.66
2023-01-11T09:23:50.781Z,1006.69
2023-01-11T09:24:50.782Z,1006.63
2023-01-11T09:25:50.762Z,1006.64
2023-01-11T09:26:50.768Z,1006.63
2023-01-11T09:27:50.737Z,1006.57
2023-01-11T09:28:50.774Z,1006.60
2023-01-11T09:29:50.684Z,1006.61
2023-01-11T09:30:50.707Z,1006.66
2023-01-11T09:31:50.681Z,1006.61
2023-01-11T09:32:50.659Z,1006.65
2023-01-11T09:33:50.648Z,1006.63
2023-01-11T09:34:50.633Z,1006.66
2023-01-11T09:35:50.638Z,1006.61
2023-01-11T09:36:50.626Z,1006.64
2023-01-11T09:37:50.595Z,1006.61
2023-01-11T09:38:50.606Z,1006.63
2023-01-11T09:39:50.584Z,1006.63
2023-01-11T09:40:50.566Z,1006.65
2023-01-11T09:41:50.576Z,1006.57
2023-01-11T09:42:50.548Z,1006.58
2023-01-11T09:43:50.551Z,1006.56
2023-01-11T09:44:50.527Z,1006.52
2023-01-11T09:45:50.511Z,1006.50
2023-01-11T09:46:50.569Z,1006.41
2023-01-11T09:47:50.514Z,1006.46
2023-01-11T09:48:50.480Z,1006.43
2023-01-11T09:49:50.467Z,1006.44
2023-01-11T09:50:50.603Z,1006.45
2023-01-11T09:51:50.465Z,1006.42
2023-01-11T09:52:50.445Z,1006.51
2023-01-11T09:53:50.483Z,1006.51
2023-01-11T09:54:50.420Z,1006.42
2023-01-11T09:55:50.422Z,1006.36
2023-01-11T09:56:50.397Z,1006.49
2023-01-11T09:57:50.512Z,1006.41
2023-01-11T09:58:50.378Z,1006.28
2023-01-11T09:59:50.363Z,1006.40
2023-01-11T10:00:50.467Z,1006.43
2023-01-11T10:01:50.335Z,1006.42
2023-01-11T10:02:50.351Z,1006.43
2023-01-11T10:03:50.358Z,1006.38
2023-01-11T10:04:50.361Z,1006.47
2023-01-11T10:05:50.315Z,1006.47
2023-01-11T10:06:50.303Z,1006.35
2023-01-11T10:07:50.317Z,1006.38
2023-01-11T10:18:23.802Z,1006.17
2023-01-11T10:18:37.594Z,1006.13
2023-01-11T10:18:38.577Z,1006.16
2023-01-11T10:18:39.290Z,1006.19
2023-01-11T10:19:18.099Z,1006.08
2023-01-11T10:19:51.199Z,1006.11
2023-01-11T10:20:50.135Z,1006.03
2023-01-11T10:21:50.144Z,1006.08
2023-01-11T10:22:50.107Z,1006.04
2023-01-11T10:23:50.131Z,1006.06
2023-01-11T10:24:50.108Z,1006.05
2023-01-11T10:25:50.078Z,1005.96
2023-01-11T10:26:50.137Z,1005.93
2023-01-11T10:27:50.055Z,1005.94
2023-01-11T10:28:50.051Z,1005.97
2023-01-11T10:29:50.039Z,1005.90
2023-01-11T10:30:50.036Z,1005.89
2023-01-11T10:31:50.132Z,1005.93
2023-01-11T10:32:49.999Z,1005.96
2023-01-11T10:33:50.006Z,1005.93
2023-01-11T10:34:49.985Z,1005.92
2023-01-11T10:35:49.968Z,1005.92
2023-01-11T10:36:49.994Z,1005.95
2023-01-11T10:37:49.950Z,1005.96
2023-01-11T10:38:49.937Z,1005.89
2023-01-11T10:39:49.949Z,1005.88
2023-01-11T10:40:49.914Z,1005.91
2023-01-11T10:41:49.903Z,1005.87
2023-01-11T10:42:49.910Z,1005.96
2023-01-11T10:43:49.888Z,1005.97
2023-01-11T10:44:49.868Z,1005.89
2023-01-11T10:45:49.915Z,1005.92
2023-01-11T10:46:49.916Z,1005.93
2023-01-11T10:47:49.840Z,1005.97
2023-01-11T10:48:49.837Z,1005.92
2023-01-11T10:49:49.814Z,1005.92
2023-01-11T10:50:49.805Z,1005.92
2023-01-11T10:51:49.811Z,1005.96
2023-01-11T10:52:49.784Z,1005.91
2023-01-11T10:53:49.779Z,1005.86
2023-01-11T10:54:50.307Z,1005.90
2023-01-11T10:55:49.766Z,1005.83
2023-01-11T10:57:01.786Z,1005.78
2023-01-11T10:57:59.418Z,1005.83
2023-01-11T10:58:50.722Z,1005.81
2023-01-11T10:59:49.739Z,1005.79
2023-01-11T11:00:49.721Z,1005.79
2023-01-11T11:01:49.723Z,1005.77
2023-01-11T11:02:49.681Z,1005.75
2023-01-11T11:03:49.659Z,1005.73
2023-01-11T11:04:49.658Z,1005.70
2023-01-11T11:05:49.660Z,1005.74
2023-01-11T11:06:49.631Z,1005.75
2023-01-11T11:07:49.642Z,1005.67
2023-01-11T11:08:49.613Z,1005.69
2023-01-11T11:09:49.595Z,1005.66
2023-01-11T11:10:49.588Z,1005.56
2023-01-11T11:11:49.613Z,1005.66
2023-01-11T11:12:49.573Z,1005.62
2023-01-11T11:13:49.558Z,1005.62
2023-01-11T11:14:49.542Z,1005.57
2023-01-11T11:15:49.553Z,1005.59
2023-01-11T11:16:49.526Z,1005.57
2023-01-11T11:17:49.515Z,1005.55
2023-01-11T11:18:49.513Z,1005.56
2023-01-11T11:19:49.488Z,1005.61
2023-01-11T11:20:49.497Z,1005.58
2023-01-11T11:21:49.467Z,1005.59
2023-01-11T11:22:49.457Z,1005.43
2023-01-11T11:23:49.471Z,1005.44
2023-01-11T11:24:49.434Z,1005.49
2023-01-11T11:25:49.420Z,1005.49
2023-01-11T11:26:49.499Z,1005.49
2023-01-11T11:27:49.446Z,1005.46
2023-01-11T11:28:49.395Z,1005.44
2023-01-11T11:29:49.437Z,1005.46
2023-01-11T11:30:49.374Z,1005.50
2023-01-11T11:31:49.440Z,1005.45
2023-01-11T11:32:49.342Z,1005.41
2023-01-11T11:33:49.343Z,1005.39
2023-01-11T11:34:49.321Z,1005.39
2023-01-11T11:35:49.314Z,1005.42
2023-01-11T11:36:49.306Z,1005.40
2023-01-11T11:37:49.320Z,1005.43
2023-01-11T11:38:49.299Z,1005.43
2023-01-11T11:39:49.278Z,1005.49
2023-01-11T11:40:49.259Z,1005.41
2023-01-11T11:41:49.262Z,1005.42
2023-01-11T11:42:49.271Z,1005.37
2023-01-11T11:43:49.247Z,1005.41
2023-01-11T11:44:49.215Z,1005.37
2023-01-11T11:45:49.256Z,1005.33
2023-01-11T11:46:49.199Z,1005.36
2023-01-11T11:47:49.212Z,1005.30
2023-01-11T11:48:49.181Z,1005.35
2023-01-11T11:49:49.166Z,1005.31
2023-01-11T11:50:49.186Z,1005.32
2023-01-11T11:51:49.157Z,1005.36
2023-01-11T11:52:49.154Z,1005.34
2023-01-11T11:53:49.129Z,1005.35
2023-01-11T11:54:49.107Z,1005.29
2023-01-11T11:55:49.112Z,1005.27
2023-01-11T11:56:49.083Z,1005.29
2023-01-11T11:57:49.101Z,1005.31
2023-01-11T11:58:49.094Z,1005.29
2023-01-11T11:59:49.078Z,1005.30
2023-01-11T12:00:49.044Z,1005.20
2023-01-11T12:01:49.073Z,1005.20
2023-01-11T12:02:49.023Z,1005.17
2023-01-11T12:03:49.033Z,1005.16
2023-01-11T12:04:49.053Z,1005.13
2023-01-11T12:05:48.987Z,1005.09
2023-01-11T12:06:49.427Z,1005.10
2023-01-11T12:07:55.194Z,1005.09
2023-01-11T12:08:49.982Z,1005.06
2023-01-11T12:09:48.944Z,1005.07
2023-01-11T12:10:48.934Z,1005.08
2023-01-11T12:11:48.922Z,1005.00